This is the latest recevied weather packets stored in our database for station/object N5JXS. If no packets are shown the sender has not sent any weather packets the latest 10 day(s).
| Time | Temp. | Humidity | Pressure | Rain* | Wind** | Luminosity | Snow |
|---|---|---|---|---|---|---|---|
| 1777920784 | 18.33° C | 19% | 1013 hPa | 0 mm | - | 160 W/m² | - |
| 1777920480 | 18.89° C | 19% | 1013.3 hPa | 0 mm | - | 237 W/m² | - |
| 1777920176 | 18.89° C | 19% | 1013.3 hPa | 0 mm | - | 234 W/m² | - |
| 1777919872 | 18.89° C | 19% | 1013.3 hPa | 0 mm | - | 309 W/m² | - |
| 1777919569 | 18.89° C | 19% | 1013.5 hPa | 0 mm | - | 371 W/m² | - |
| 1777919267 | 18.33° C | 21% | 1013.8 hPa | 0 mm | - | 876 W/m² | - |
| 1777918964 | 17.78° C | 21% | 1013.8 hPa | 0 mm | - | 272 W/m² | - |
| 1777918662 | 16.67° C | 22% | 1013.9 hPa | 0 mm | - | 777 W/m² | - |
| 1777918359 | 16.67° C | 22% | 1013.9 hPa | 0 mm | - | 155 W/m² | - |
| 1777918058 | 17.22° C | 21% | 1014 hPa | 0 mm | - | 180 W/m² | - |
| 1777917756 | 17.22° C | 22% | 1013.9 hPa | 0 mm | - | 591 W/m² | - |
| 1777917453 | 18.33° C | 21% | 1014.1 hPa | 0 mm | - | 147 W/m² | - |
| 1777917150 | 18.33° C | 21% | 1014 hPa | 0 mm | - | 158 W/m² | - |
| 1777916848 | 18.33° C | 22% | 1013.9 hPa | 0 mm | - | 384 W/m² | - |
| 1777916546 | 16.67° C | 25% | 1014.1 hPa | 0 mm | - | 780 W/m² | - |
| 1777916242 | 16.11° C | 25% | 1014.5 hPa | 0 mm | - | 160 W/m² | - |
| 1777915939 | 16.67° C | 24% | 1014.6 hPa | 0 mm | - | 141 W/m² | - |
| 1777915635 | 17.78° C | 25% | 1014.4 hPa | 0 mm | - | 133 W/m² | - |
| 1777915332 | 17.78° C | 27% | 1014.9 hPa | 0 mm | - | 687 W/m² | - |
| 1777915029 | 17.22° C | 25% | 1014.6 hPa | 0 mm | - | 606 W/m² | - |
| 1777914726 | 17.22° C | 27% | 1015 hPa | 0 mm | - | 554 W/m² | - |
| 1777914422 | 16.11° C | 29% | 1014.9 hPa | 0 mm | - | 587 W/m² | - |
| 1777914120 | 15.56° C | 30% | 1015 hPa | 0 mm | - | 436 W/m² | - |
| 1777913816 | 15.56° C | 30% | 1015.1 hPa | 0 mm | - | 384 W/m² | - |
| 1777913512 | 15.56° C | 32% | 1015.1 hPa | 0 mm | - | 430 W/m² | - |
* Rain latest hour (hover to see other rain measurements)
** Current wind speed in m/s (hover to see current wind gust speed)